Time;durP1;ratioP1;P1;durP2;ratioP2;P2;SDS_P1;SDS_P2;PMS_P1;PMS_P2;Temp;Humidity;BMP_temperature;BMP_pressure;BME280_temperature;BME280_humidity;BME280_pressure;Samples;Min_cycle;Max_cycle;Signal;HPM_P1;HPM_P2
2021/01/09 00:00:35;;;;;;;51.22;26.05;;;15.70;63.70;;;;;;4973059;28;20153;-63
2021/01/09 00:03:01;;;;;;;48.28;25.52;;;15.70;63.50;;;;;;4972378;28;20034;-63
2021/01/09 00:05:27;;;;;;;52.72;26.10;;;15.70;63.50;;;;;;4967843;28;20034;-63
2021/01/09 00:07:52;;;;;;;42.45;24.08;;;15.70;63.50;;;;;;4949711;28;20050;-63
2021/01/09 00:10:18;;;;;;;44.60;23.30;;;15.60;63.40;;;;;;4948150;29;20058;-62
2021/01/09 00:12:43;;;;;;;45.58;23.70;;;15.70;63.40;;;;;;4948791;28;20597;-63
2021/01/09 00:15:15;;;;;;;46.40;22.75;;;15.70;63.30;;;;;;4952800;28;20023;-61
2021/01/09 00:17:41;;;;;;;43.67;22.95;;;15.60;63.10;;;;;;4964080;28;20030;-63
2021/01/09 00:20:09;;;;;;;42.53;23.23;;;15.70;63.00;;;;;;4936393;29;20488;-62
2021/01/09 00:22:34;;;;;;;42.25;22.25;;;15.60;63.00;;;;;;4976560;28;20026;-63
2021/01/09 00:25:00;;;;;;;45.67;23.40;;;15.70;62.80;;;;;;4992535;28;20053;-63
2021/01/09 00:27:26;;;;;;;41.95;21.10;;;15.60;62.80;;;;;;4989906;28;20428;-62
2021/01/09 00:29:52;;;;;;;39.38;20.55;;;15.70;62.70;;;;;;4974305;28;20114;-62
2021/01/09 00:32:17;;;;;;;41.45;20.67;;;15.60;62.70;;;;;;4964633;28;20684;-62
2021/01/09 00:34:43;;;;;;;41.42;22.33;;;15.60;62.60;;;;;;4983233;28;20031;-61
2021/01/09 00:37:08;;;;;;;37.13;20.30;;;15.70;62.50;;;;;;4974846;28;20026;-62
2021/01/09 00:39:34;;;;;;;34.75;18.48;;;15.60;62.40;;;;;;4973581;28;20037;-62
2021/01/09 00:42:00;;;;;;;37.58;19.95;;;15.60;62.30;;;;;;4956766;28;20029;-63
2021/01/09 00:44:27;;;;;;;33.45;18.92;;;15.60;62.30;;;;;;4959222;28;20114;-63
2021/01/09 00:46:54;;;;;;;37.58;19.27;;;15.50;62.30;;;;;;4973095;28;20041;-63
2021/01/09 00:49:20;;;;;;;38.65;20.30;;;15.60;62.20;;;;;;4981855;28;20038;-62
2021/01/09 00:51:46;;;;;;;35.72;18.30;;;15.60;62.10;;;;;;4960074;28;20428;-63
2021/01/09 00:54:11;;;;;;;31.90;18.35;;;15.60;62.00;;;;;;4940169;28;20037;-62
2021/01/09 00:56:37;;;;;;;29.67;17.35;;;15.60;61.90;;;;;;4946697;29;20027;-63
2021/01/09 00:59:02;;;;;;;31.65;16.90;;;15.60;62.00;;;;;;4953953;28;20023;-62
2021/01/09 01:01:28;;;;;;;34.42;18.40;;;15.50;61.90;;;;;;4948561;28;20025;-63
2021/01/09 01:03:53;;;;;;;34.45;17.55;;;15.50;61.90;;;;;;4964210;28;20057;-62
2021/01/09 01:06:23;;;;;;;32.67;16.95;;;15.60;61.90;;;;;;4965037;28;20031;-63
2021/01/09 01:08:49;;;;;;;32.00;16.10;;;15.50;61.90;;;;;;4968813;28;20027;-63
2021/01/09 01:11:23;;;;;;;28.27;16.17;;;15.60;61.80;;;;;;4971761;28;20093;-63
2021/01/09 01:13:48;;;;;;;28.77;15.57;;;15.60;61.70;;;;;;4954088;28;20031;-62
2021/01/09 01:16:14;;;;;;;29.10;15.15;;;15.50;61.70;;;;;;4965714;28;20455;-63
2021/01/09 01:18:39;;;;;;;28.08;14.77;;;15.50;61.80;;;;;;4989059;28;20030;-62
2021/01/09 01:21:05;;;;;;;31.73;15.85;;;15.40;61.80;;;;;;4966527;28;20035;-62
2021/01/09 01:23:31;;;;;;;24.67;14.32;;;15.50;61.70;;;;;;4964391;28;20023;-62
2021/01/09 01:25:56;;;;;;;24.85;13.27;;;15.40;61.60;;;;;;4962372;28;20393;-64
2021/01/09 01:28:22;;;;;;;32.22;15.30;;;15.40;61.50;;;;;;4963117;28;20412;-62
2021/01/09 01:30:50;;;;;;;25.27;13.88;;;15.40;61.60;;;;;;4969910;28;20113;-61
2021/01/09 01:33:16;;;;;;;24.50;13.00;;;15.40;61.50;;;;;;4965530;28;20062;-63
2021/01/09 01:35:41;;;;;;;25.13;13.32;;;15.40;61.30;;;;;;4971139;28;20069;-63
2021/01/09 01:38:07;;;;;;;22.42;13.30;;;15.40;61.30;;;;;;4970031;28;20034;-63
2021/01/09 01:40:33;;;;;;;24.88;13.18;;;15.40;61.10;;;;;;4991200;28;20033;-63
2021/01/09 01:42:58;;;;;;;22.50;12.45;;;15.40;61.10;;;;;;4989188;28;20050;-63
2021/01/09 01:45:24;;;;;;;23.33;12.05;;;15.40;61.10;;;;;;4973673;28;20038;-63
2021/01/09 01:47:49;;;;;;;23.80;12.73;;;15.40;61.00;;;;;;4963364;28;20083;-63
2021/01/09 01:50:15;;;;;;;22.50;12.52;;;15.40;61.00;;;;;;4968708;28;20121;-62
2021/01/09 01:52:42;;;;;;;21.40;11.68;;;15.40;61.10;;;;;;4972398;28;20047;-63
2021/01/09 01:55:09;;;;;;;20.75;11.75;;;15.40;61.10;;;;;;4964401;28;20035;-62
2021/01/09 01:57:35;;;;;;;23.05;11.25;;;15.30;61.20;;;;;;4954037;28;20054;-63
2021/01/09 02:00:01;;;;;;;20.48;10.85;;;15.30;61.00;;;;;;4985453;28;20468;-63
2021/01/09 02:02:26;;;;;;;20.33;10.80;;;15.30;61.30;;;;;;4964519;28;20019;-62
2021/01/09 02:04:58;;;;;;;22.70;11.20;;;15.30;61.30;;;;;;4964711;28;20023;-63
2021/01/09 02:07:30;;;;;;;19.23;10.57;;;15.20;61.30;;;;;;4954284;28;20038;-62
2021/01/09 02:09:57;;;;;;;18.35;10.05;;;15.20;61.30;;;;;;4935902;29;20436;-62
2021/01/09 02:12:44;;;;;;;20.60;11.15;;;15.20;61.30;;;;;;4952676;28;20039;-62
2021/01/09 02:15:11;;;;;;;16.75;9.23;;;15.20;61.40;;;;;;4950897;28;20034;-62
2021/01/09 02:17:39;;;;;;;19.25;9.77;;;15.20;61.30;;;;;;4942174;28;20069;-63
2021/01/09 02:20:06;;;;;;;19.40;10.18;;;15.20;61.30;;;;;;4977721;28;20022;-62
2021/01/09 02:22:54;;;;;;;19.20;10.15;;;15.20;61.30;;;;;;4976662;28;20031;-63
2021/01/09 02:25:20;;;;;;;18.40;9.52;;;15.20;61.30;;;;;;4939561;28;20037;-63
2021/01/09 02:27:45;;;;;;;17.77;9.70;;;15.20;61.20;;;;;;4956187;28;20030;-63
2021/01/09 02:30:14;;;;;;;16.90;9.13;;;15.20;61.20;;;;;;4956050;28;20381;-63
2021/01/09 02:32:59;;;;;;;17.55;9.80;;;15.20;61.30;;;;;;4961499;28;20448;-62
2021/01/09 02:35:27;;;;;;;16.92;9.25;;;15.20;61.40;;;;;;4958754;28;20035;-62
2021/01/09 02:37:54;;;;;;;15.15;8.77;;;15.10;61.20;;;;;;4974211;28;20038;-63
2021/01/09 02:40:20;;;;;;;15.48;8.48;;;15.20;61.20;;;;;;4988560;28;20554;-63
2021/01/09 02:42:46;;;;;;;16.52;8.93;;;15.10;61.20;;;;;;4975621;28;20030;-62
2021/01/09 02:45:12;;;;;;;14.55;8.73;;;15.10;61.20;;;;;;4973288;28;20030;-62
2021/01/09 02:47:37;;;;;;;15.30;8.35;;;15.10;61.20;;;;;;4957493;28;20526;-62
2021/01/09 02:50:04;;;;;;;14.63;8.52;;;15.10;61.30;;;;;;4957360;28;20031;-62
2021/01/09 02:52:30;;;;;;;17.13;8.50;;;15.00;61.40;;;;;;4974199;28;20238;-62
2021/01/09 02:54:55;;;;;;;14.93;8.52;;;15.00;61.20;;;;;;4958748;28;20137;-62
2021/01/09 02:57:21;;;;;;;15.52;7.85;;;15.10;61.30;;;;;;4957409;28;20227;-62
2021/01/09 02:59:46;;;;;;;14.77;8.07;;;15.10;61.00;;;;;;4951389;29;20365;-63
2021/01/09 03:02:12;;;;;;;15.70;7.95;;;15.10;61.10;;;;;;4947597;28;20455;-63
2021/01/09 03:04:37;;;;;;;14.30;7.57;;;15.10;61.10;;;;;;4974146;28;20019;-62
2021/01/09 03:07:03;;;;;;;14.48;7.82;;;15.10;61.10;;;;;;4970607;28;20106;-63
2021/01/09 03:09:28;;;;;;;14.27;7.07;;;15.00;61.00;;;;;;4970678;28;20045;-63
2021/01/09 03:11:54;;;;;;;13.95;6.82;;;15.00;61.00;;;;;;4969068;28;20031;-62
2021/01/09 03:14:20;;;;;;;14.80;7.53;;;15.00;60.90;;;;;;4955360;28;20174;-62
2021/01/09 03:16:45;;;;;;;13.73;7.68;;;15.00;61.00;;;;;;4963911;28;20031;-61
2021/01/09 03:19:10;;;;;;;14.73;7.70;;;15.00;61.00;;;;;;4940405;28;20500;-63
2021/01/09 03:21:36;;;;;;;12.68;7.20;;;15.00;60.90;;;;;;4973716;28;20121;-62
2021/01/09 03:24:02;;;;;;;14.50;7.57;;;15.10;60.70;;;;;;4955937;28;20150;-62
2021/01/09 03:26:27;;;;;;;14.10;6.85;;;15.20;60.70;;;;;;4972424;28;20034;-63
2021/01/09 03:28:53;;;;;;;13.20;7.05;;;15.10;60.50;;;;;;4958380;28;20444;-63
2021/01/09 03:31:18;;;;;;;13.43;6.53;;;15.20;60.50;;;;;;4957424;28;20027;-63
2021/01/09 03:33:44;;;;;;;11.80;5.93;;;15.10;60.50;;;;;;4957868;28;20042;-62
2021/01/09 03:36:10;;;;;;;11.85;6.10;;;15.10;60.40;;;;;;4941627;29;20027;-61
2021/01/09 03:38:35;;;;;;;10.18;5.88;;;15.10;60.80;;;;;;4954395;29;20074;-63
2021/01/09 03:41:01;;;;;;;10.90;5.60;;;15.20;60.20;;;;;;4941255;28;20033;-64
2021/01/09 03:43:26;;;;;;;12.27;6.57;;;15.10;60.10;;;;;;4973665;28;20023;-63
2021/01/09 03:45:52;;;;;;;11.55;6.05;;;15.10;60.20;;;;;;4956162;28;20031;-63
2021/01/09 03:48:17;;;;;;;13.68;5.72;;;15.10;60.30;;;;;;4961920;28;20037;-63
2021/01/09 03:50:43;;;;;;;12.10;5.78;;;15.10;60.30;;;;;;4954272;29;20034;-63
2021/01/09 03:53:08;;;;;;;12.52;5.35;;;15.10;60.30;;;;;;4954940;28;20102;-62
2021/01/09 03:55:34;;;;;;;12.07;6.15;;;15.10;60.10;;;;;;4936927;29;20035;-62
2021/01/09 03:58:00;;;;;;;11.68;5.55;;;15.10;60.00;;;;;;4957549;28;20123;-61
2021/01/09 04:00:26;;;;;;;10.95;5.85;;;15.10;60.20;;;;;;4955596;28;20640;-63
2021/01/09 04:02:51;;;;;;;11.60;5.07;;;15.10;60.20;;;;;;4970802;28;20118;-62
2021/01/09 04:05:17;;;;;;;9.88;5.03;;;15.00;60.10;;;;;;4969151;28;20022;-62
2021/01/09 04:07:42;;;;;;;10.60;4.93;;;15.00;60.00;;;;;;4953944;29;20039;-63
2021/01/09 04:10:08;;;;;;;10.43;5.05;;;15.10;60.10;;;;;;4966934;28;20038;-62
2021/01/09 04:12:33;;;;;;;10.05;5.43;;;15.00;60.00;;;;;;4968757;28;20076;-63
2021/01/09 04:14:59;;;;;;;9.85;5.40;;;15.00;59.90;;;;;;4957294;28;20388;-62
2021/01/09 04:17:25;;;;;;;11.02;4.50;;;15.00;60.00;;;;;;4968804;28;20669;-63
2021/01/09 04:19:50;;;;;;;12.20;5.30;;;15.00;60.00;;;;;;4959076;28;20058;-62
2021/01/09 04:22:16;;;;;;;9.68;4.80;;;15.00;60.00;;;;;;4972626;28;20110;-62
2021/01/09 04:24:41;;;;;;;11.07;5.13;;;15.00;59.90;;;;;;4972898;28;20102;-63
2021/01/09 04:27:07;;;;;;;9.80;4.63;;;15.00;59.80;;;;;;4972965;28;20076;-63
2021/01/09 04:29:32;;;;;;;12.65;4.85;;;15.00;59.80;;;;;;4957308;28;20027;-62
2021/01/09 04:31:58;;;;;;;11.30;4.85;;;15.00;59.90;;;;;;4968812;28;20035;-62
2021/01/09 04:34:25;;;;;;;9.45;4.30;;;15.00;60.00;;;;;;4967344;28;20039;-63
2021/01/09 04:36:52;;;;;;;9.18;4.18;;;15.00;60.00;;;;;;4953317;28;20042;-62
2021/01/09 04:39:18;;;;;;;9.93;4.38;;;15.00;59.90;;;;;;4952112;28;20030;-62
2021/01/09 04:41:44;;;;;;;10.05;4.38;;;15.00;59.80;;;;;;4955321;28;20217;-62
2021/01/09 04:44:11;;;;;;;9.93;3.97;;;15.00;59.80;;;;;;4972800;28;20035;-62
2021/01/09 04:46:45;;;;;;;9.25;3.95;;;15.00;59.80;;;;;;4971541;28;20038;-63
2021/01/09 04:49:11;;;;;;;8.32;3.63;;;15.00;59.80;;;;;;4953104;29;20049;-62
2021/01/09 04:51:37;;;;;;;8.70;3.85;;;15.00;59.70;;;;;;4954092;28;20023;-62
2021/01/09 04:54:03;;;;;;;7.55;3.90;;;14.90;59.50;;;;;;4959855;28;20028;-62
2021/01/09 04:56:29;;;;;;;7.57;3.67;;;14.90;59.50;;;;;;4960113;28;20395;-63
2021/01/09 04:58:55;;;;;;;7.72;3.45;;;14.90;59.60;;;;;;4972855;28;20034;-63
2021/01/09 05:01:21;;;;;;;7.45;3.40;;;14.80;59.60;;;;;;4967085;28;20138;-63
2021/01/09 05:03:48;;;;;;;7.80;3.45;;;14.80;59.60;;;;;;4970033;28;20030;-62
2021/01/09 05:06:21;;;;;;;9.85;4.03;;;14.80;59.60;;;;;;4971351;28;20027;-62
2021/01/09 05:08:47;;;;;;;8.40;3.47;;;14.90;59.60;;;;;;4957298;28;20082;-63
2021/01/09 05:11:16;;;;;;;7.82;3.97;;;14.90;59.50;;;;;;4945442;29;20082;-62
2021/01/09 05:13:43;;;;;;;8.95;3.40;;;14.90;59.40;;;;;;4941263;28;20027;-62
2021/01/09 05:16:10;;;;;;;7.40;3.75;;;14.90;59.30;;;;;;4970146;28;20058;-62
2021/01/09 05:18:40;;;;;;;7.90;3.30;;;14.90;59.30;;;;;;4945074;29;20093;-62
2021/01/09 05:21:06;;;;;;;7.95;3.70;;;14.80;59.30;;;;;;4942035;28;20035;-62
2021/01/09 05:23:49;;;;;;;7.57;3.55;;;14.80;59.40;;;;;;4971840;28;20110;-63
2021/01/09 05:26:15;;;;;;;7.75;3.38;;;14.80;59.50;;;;;;4968659;28;20031;-63
2021/01/09 05:28:44;;;;;;;7.82;3.40;;;14.70;59.50;;;;;;4971727;28;20559;-62
2021/01/09 05:31:09;;;;;;;7.53;3.35;;;14.80;59.50;;;;;;4971231;28;20030;-63
2021/01/09 05:33:35;;;;;;;6.00;2.78;;;14.80;59.40;;;;;;4965333;28;20119;-62
2021/01/09 05:36:03;;;;;;;7.40;3.15;;;14.80;59.30;;;;;;4971652;28;20058;-63
2021/01/09 05:38:40;;;;;;;7.03;3.20;;;14.80;59.40;;;;;;4967112;28;20057;-61
2021/01/09 05:41:27;;;;;;;8.65;3.40;;;14.70;59.40;;;;;;4952056;29;20062;-61
2021/01/09 05:44:07;;;;;;;6.18;2.97;;;14.70;59.40;;;;;;4944107;28;20470;-62
2021/01/09 05:46:34;;;;;;;5.53;2.90;;;14.70;59.60;;;;;;4973547;28;20030;-62
2021/01/09 05:49:01;;;;;;;6.13;3.10;;;14.70;59.60;;;;;;4991632;28;20026;-63
2021/01/09 05:51:31;;;;;;;8.32;3.50;;;14.70;59.70;;;;;;4966104;28;20057;-62
2021/01/09 05:53:57;;;;;;;6.45;2.83;;;14.70;59.80;;;;;;4966912;28;20690;-62
2021/01/09 05:56:23;;;;;;;6.45;2.80;;;14.70;59.70;;;;;;4962382;28;20035;-62
2021/01/09 05:58:54;;;;;;;8.95;3.20;;;14.70;59.60;;;;;;4975331;28;20519;-63
2021/01/09 06:01:25;;;;;;;6.47;3.03;;;14.70;59.60;;;;;;4969128;28;20027;-62
2021/01/09 06:04:32;;;;;;;5.72;2.80;;;14.70;59.80;;;;;;4974511;28;20038;-61
2021/01/09 06:07:33;;;;;;;5.53;2.58;;;14.70;59.80;;;;;;4966804;28;20089;-63
2021/01/09 06:10:13;;;;;;;7.55;3.10;;;14.60;59.90;;;;;;4955934;29;20023;-63
2021/01/09 06:12:59;;;;;;;5.90;2.92;;;14.50;59.90;;;;;;4955382;28;20027;-62
2021/01/09 06:15:29;;;;;;;5.70;2.75;;;14.60;59.90;;;;;;4938691;29;20030;-63
2021/01/09 06:17:55;;;;;;;5.88;2.70;;;14.60;59.90;;;;;;4938692;29;20031;-63
2021/01/09 06:20:20;;;;;;;5.80;2.70;;;14.60;59.80;;;;;;4938421;29;20046;-63
2021/01/09 06:22:46;;;;;;;5.60;2.60;;;14.60;59.80;;;;;;4955614;28;20035;-63
2021/01/09 06:25:12;;;;;;;5.97;2.53;;;14.60;59.90;;;;;;4941924;29;20042;-62
2021/01/09 06:27:40;;;;;;;5.63;2.78;;;14.60;59.90;;;;;;4968719;28;20026;-63
2021/01/09 06:30:09;;;;;;;6.68;2.80;;;14.50;59.90;;;;;;4974833;28;20058;-62
2021/01/09 06:32:40;;;;;;;6.53;3.25;;;14.50;59.90;;;;;;4957295;28;20480;-63
2021/01/09 06:35:08;;;;;;;6.85;2.85;;;14.60;59.90;;;;;;4946213;28;20096;-63
2021/01/09 06:37:34;;;;;;;5.50;2.60;;;14.50;59.90;;;;;;4956418;28;20031;-62
2021/01/09 06:40:01;;;;;;;5.38;2.35;;;14.50;60.00;;;;;;4957453;28;20653;-62
2021/01/09 06:42:28;;;;;;;7.03;2.63;;;14.50;59.80;;;;;;4972834;28;20109;-63
2021/01/09 06:44:54;;;;;;;7.82;3.05;;;14.50;59.90;;;;;;4958888;28;20030;-63
2021/01/09 06:47:27;;;;;;;6.20;2.40;;;14.50;60.10;;;;;;4974724;28;20031;-63
2021/01/09 06:49:54;;;;;;;5.50;2.30;;;14.50;60.20;;;;;;4974197;28;20077;-62
2021/01/09 06:52:20;;;;;;;6.90;2.58;;;14.50;60.20;;;;;;4973957;28;20105;-62
2021/01/09 06:54:46;;;;;;;5.68;2.53;;;14.50;60.10;;;;;;4980983;28;20065;-64
2021/01/09 06:57:20;;;;;;;5.03;2.38;;;14.50;60.50;;;;;;4974474;28;20116;-61
2021/01/09 06:59:48;;;;;;;6.03;2.60;;;14.50;60.10;;;;;;4957614;28;20028;-63
2021/01/09 07:02:18;;;;;;;5.53;2.65;;;14.50;60.00;;;;;;4965480;28;20030;-63
2021/01/09 07:04:48;;;;;;;5.72;2.60;;;14.50;60.00;;;;;;4955219;29;20111;-64
2021/01/09 07:07:28;;;;;;;5.80;2.40;;;14.50;60.10;;;;;;4937802;29;20042;-62
2021/01/09 07:10:29;;;;;;;5.28;2.28;;;14.40;60.10;;;;;;4957103;28;20102;-62
2021/01/09 07:12:55;;;;;;;4.65;2.38;;;14.40;60.10;;;;;;4955358;28;20047;-63
2021/01/09 07:15:22;;;;;;;8.10;2.72;;;14.40;60.00;;;;;;4955955;28;20031;-62
2021/01/09 07:17:51;;;;;;;5.78;2.30;;;14.40;60.00;;;;;;4973500;28;20034;-62
2021/01/09 07:20:20;;;;;;;4.90;2.25;;;14.40;60.00;;;;;;4954804;28;20028;-61
2021/01/09 07:22:49;;;;;;;6.18;2.80;;;14.40;60.00;;;;;;4966194;28;20477;-63
2021/01/09 07:25:28;;;;;;;8.23;2.97;;;14.40;60.10;;;;;;4948859;28;20151;-62
2021/01/09 07:27:55;;;;;;;5.28;2.40;;;14.40;60.00;;;;;;4961295;28;20058;-62
2021/01/09 07:30:21;;;;;;;7.65;2.40;;;14.40;60.30;;;;;;4963966;28;20029;-62
2021/01/09 07:32:49;;;;;;;5.35;2.20;;;14.40;59.70;;;;;;4993082;28;20399;-62
2021/01/09 07:35:27;;;;;;;7.80;2.60;;;14.40;59.60;;;;;;4993423;28;20030;-62
2021/01/09 07:38:02;;;;;;;6.88;2.50;;;14.40;59.60;;;;;;4991093;28;20018;-60
2021/01/09 07:40:50;;;;;;;5.45;2.58;;;14.40;59.70;;;;;;4956401;28;20019;-63
2021/01/09 07:43:44;;;;;;;6.63;2.45;;;14.40;60.00;;;;;;4967686;28;20023;-62
2021/01/09 07:46:30;;;;;;;7.00;2.60;;;14.40;60.30;;;;;;4958484;28;20412;-62
2021/01/09 07:49:00;;;;;;;5.32;2.65;;;14.30;60.10;;;;;;4973104;28;20073;-63
2021/01/09 07:51:49;;;;;;;6.55;2.30;;;14.30;60.10;;;;;;4959358;28;20088;-62
2021/01/09 07:54:36;;;;;;;5.45;2.17;;;14.30;60.10;;;;;;4961318;28;20374;-61
2021/01/09 07:57:04;;;;;;;6.75;2.50;;;14.30;59.90;;;;;;4953531;29;20035;-64
2021/01/09 07:59:30;;;;;;;6.65;2.50;;;14.40;59.90;;;;;;4957453;28;20392;-63
2021/01/09 08:01:56;;;;;;;7.20;2.60;;;14.30;59.80;;;;;;4959545;28;20030;-63
2021/01/09 08:04:22;;;;;;;7.15;2.47;;;14.30;59.80;;;;;;4951969;28;20073;-63
2021/01/09 08:06:47;;;;;;;7.35;2.30;;;14.30;60.00;;;;;;4959562;28;20041;-63
2021/01/09 08:09:13;;;;;;;8.93;2.72;;;14.30;60.00;;;;;;4968532;28;20113;-63
2021/01/09 08:11:46;;;;;;;6.72;2.90;;;14.30;60.10;;;;;;4968136;28;20035;-63
2021/01/09 08:14:13;;;;;;;7.00;2.88;;;14.30;60.10;;;;;;4969846;28;20030;-62
2021/01/09 08:16:39;;;;;;;6.57;2.97;;;14.20;60.10;;;;;;4972234;28;20353;-63
2021/01/09 08:19:17;;;;;;;8.00;2.67;;;14.30;60.10;;;;;;4970644;28;20033;-62
2021/01/09 08:21:53;;;;;;;5.43;2.45;;;14.20;60.10;;;;;;4969065;28;20078;-62
2021/01/09 08:24:26;;;;;;;9.05;2.67;;;14.30;60.10;;;;;;4971886;28;20031;-63
2021/01/09 08:26:56;;;;;;;7.32;2.58;;;14.30;60.10;;;;;;4984406;28;20393;-63
2021/01/09 08:29:26;;;;;;;6.50;2.60;;;14.20;60.00;;;;;;4953378;28;20027;-62
2021/01/09 08:31:54;;;;;;;7.85;2.90;;;14.30;59.80;;;;;;4968923;28;20029;-62
2021/01/09 08:34:21;;;;;;;7.80;2.40;;;14.30;59.70;;;;;;4962623;28;20538;-62
2021/01/09 08:36:57;;;;;;;7.97;2.80;;;14.30;59.70;;;;;;4972018;28;20015;-63
2021/01/09 08:39:24;;;;;;;10.23;3.20;;;14.30;59.70;;;;;;4953381;28;20479;-62
2021/01/09 08:41:51;;;;;;;11.45;3.58;;;14.30;59.70;;;;;;4971612;28;20042;-63
2021/01/09 08:44:18;;;;;;;10.30;3.42;;;14.20;59.70;;;;;;4961177;28;20109;-63
2021/01/09 08:46:44;;;;;;;14.07;3.30;;;14.20;59.90;;;;;;4971842;28;20023;-63
2021/01/09 08:49:35;;;;;;;10.77;3.90;;;14.20;59.90;;;;;;4970296;28;20106;-62
2021/01/09 08:52:05;;;;;;;9.52;3.28;;;14.20;59.80;;;;;;4964886;28;20593;-62
2021/01/09 08:54:31;;;;;;;11.73;3.40;;;14.20;59.80;;;;;;4951746;28;20081;-63
2021/01/09 08:56:57;;;;;;;10.15;3.40;;;14.20;59.80;;;;;;4970484;28;20058;-63
2021/01/09 08:59:23;;;;;;;8.55;3.20;;;14.20;59.70;;;;;;4968917;28;20121;-61
2021/01/09 09:01:57;;;;;;;8.10;3.33;;;14.30;59.70;;;;;;4967930;28;20035;-62
2021/01/09 09:04:22;;;;;;;11.52;3.42;;;14.20;59.60;;;;;;4950155;28;20026;-63
2021/01/09 09:07:09;;;;;;;10.90;3.60;;;14.30;59.70;;;;;;4973023;28;20031;-60
2021/01/09 09:09:39;;;;;;;8.82;3.28;;;14.30;59.60;;;;;;4970880;28;20385;-62
2021/01/09 09:12:06;;;;;;;13.63;3.38;;;14.20;60.00;;;;;;4966574;28;20090;-62
2021/01/09 09:14:32;;;;;;;8.40;3.28;;;14.30;60.40;;;;;;4970301;28;20439;-62
2021/01/09 09:17:06;;;;;;;10.85;3.83;;;14.30;60.20;;;;;;4971143;28;20066;-62
2021/01/09 09:19:36;;;;;;;10.23;3.45;;;14.30;59.80;;;;;;4977791;28;20049;-62
2021/01/09 09:22:02;;;;;;;9.13;3.30;;;14.30;59.60;;;;;;4986019;28;20031;-63
2021/01/09 09:24:44;;;;;;;11.45;3.47;;;14.40;59.30;;;;;;4961587;28;20081;-62
2021/01/09 09:27:27;;;;;;;11.65;3.75;;;14.30;59.20;;;;;;4971771;28;20463;-62
2021/01/09 09:30:13;;;;;;;24.55;7.22;;;14.30;59.50;;;;;;4954033;28;20031;-63
2021/01/09 09:32:43;;;;;;;59.35;53.60;;;14.40;60.70;;;;;;4940731;28;20101;-62
2021/01/09 09:35:22;;;;;;;56.63;50.72;;;14.50;62.20;;;;;;4966479;28;20023;-62
2021/01/09 09:37:48;;;;;;;31.67;16.55;;;14.50;60.50;;;;;;4965710;28;20030;-65
2021/01/09 09:40:24;;;;;;;20.27;13.05;;;14.50;61.00;;;;;;4971070;28;20030;-63
2021/01/09 09:42:49;;;;;;;30.25;10.82;;;14.40;60.90;;;;;;4964240;28;20023;-66
2021/01/09 09:45:16;;;;;;;21.92;9.88;;;14.50;61.20;;;;;;4968761;28;20535;-63
2021/01/09 09:47:49;;;;;;;20.13;9.20;;;14.40;61.30;;;;;;4963138;28;20030;-63
2021/01/09 09:50:19;;;;;;;21.20;9.07;;;14.60;60.10;;;;;;4965083;28;20395;-64
2021/01/09 09:53:05;;;;;;;22.67;8.38;;;14.60;59.40;;;;;;4967278;28;20065;-65
2021/01/09 09:55:31;;;;;;;13.63;7.40;;;14.70;59.00;;;;;;4952746;28;20034;-63
2021/01/09 09:58:11;;;;;;;17.40;7.35;;;14.60;58.80;;;;;;4953240;28;20109;-63
2021/01/09 10:00:43;;;;;;;14.55;7.65;;;14.70;58.50;;;;;;4947404;28;20411;-64
2021/01/09 10:03:09;;;;;;;14.18;5.80;;;14.90;58.40;;;;;;4943041;28;20035;-67
2021/01/09 10:05:35;;;;;;;13.73;6.53;;;14.90;58.80;;;;;;4968169;28;20046;-65
2021/01/09 10:08:14;;;;;;;15.57;6.43;;;15.00;59.10;;;;;;4966464;28;20034;-65
2021/01/09 10:10:49;;;;;;;19.02;6.47;;;15.00;59.30;;;;;;4965121;28;20035;-64
2021/01/09 10:13:27;;;;;;;15.63;5.97;;;14.90;59.20;;;;;;4974566;28;20234;-64
2021/01/09 10:15:53;;;;;;;11.48;5.90;;;14.90;59.60;;;;;;4951261;29;20023;-64
2021/01/09 10:18:19;;;;;;;25.38;6.60;;;14.90;59.60;;;;;;4967658;28;20110;-65
2021/01/09 10:20:44;;;;;;;11.30;5.88;;;14.90;59.80;;;;;;4966405;28;20034;-64
2021/01/09 10:23:10;;;;;;;11.35;5.43;;;14.90;60.00;;;;;;4957226;28;20023;-64
2021/01/09 10:25:36;;;;;;;12.30;6.90;;;14.90;60.20;;;;;;4970618;28;20019;-64
2021/01/09 10:28:01;;;;;;;12.45;6.32;;;14.90;59.80;;;;;;4952630;28;20074;-64
2021/01/09 10:30:27;;;;;;;11.05;5.80;;;14.90;59.60;;;;;;4953311;28;20031;-64
2021/01/09 10:32:52;;;;;;;15.25;5.70;;;14.90;59.70;;;;;;4968063;28;20034;-63
2021/01/09 10:35:18;;;;;;;12.27;5.68;;;14.90;59.70;;;;;;4971151;28;20031;-65
2021/01/09 10:37:44;;;;;;;12.93;5.40;;;14.90;59.60;;;;;;4955927;28;20026;-64
2021/01/09 10:40:10;;;;;;;11.07;5.63;;;14.90;59.80;;;;;;4956999;28;20057;-64
2021/01/09 10:42:35;;;;;;;13.15;5.38;;;14.90;59.80;;;;;;4954886;28;20114;-64
2021/01/09 10:45:01;;;;;;;10.20;5.00;;;14.90;60.00;;;;;;4969393;28;20113;-64
2021/01/09 10:47:26;;;;;;;10.18;5.15;;;14.80;60.00;;;;;;4957126;28;20027;-64
2021/01/09 10:49:52;;;;;;;9.30;5.20;;;14.80;60.10;;;;;;4966249;28;20039;-65
2021/01/09 10:52:18;;;;;;;11.10;5.45;;;14.90;60.10;;;;;;4963007;28;20428;-66
2021/01/09 10:54:43;;;;;;;10.10;5.05;;;14.90;60.10;;;;;;4963757;28;20078;-65
2021/01/09 10:57:09;;;;;;;11.60;4.93;;;14.90;60.10;;;;;;4969149;28;20384;-64
2021/01/09 10:59:34;;;;;;;9.80;5.28;;;15.00;60.10;;;;;;4956712;28;20088;-64
2021/01/09 11:02:04;;;;;;;11.88;5.28;;;15.10;60.00;;;;;;4968592;28;20043;-65
2021/01/09 11:04:30;;;;;;;11.68;6.15;;;15.10;59.40;;;;;;4971560;28;20026;-64
2021/01/09 11:06:59;;;;;;;11.57;4.95;;;15.30;59.60;;;;;;4954368;28;20093;-68
2021/01/09 11:09:25;;;;;;;12.25;5.25;;;15.50;60.30;;;;;;4972758;28;20037;-63
2021/01/09 11:11:50;;;;;;;11.82;5.22;;;15.70;59.20;;;;;;4966313;28;20027;-67
2021/01/09 11:14:16;;;;;;;11.55;5.45;;;15.80;59.10;;;;;;4960381;28;20038;-65
2021/01/09 11:16:42;;;;;;;16.17;6.28;;;15.90;58.50;;;;;;4971244;28;20486;-64
2021/01/09 11:19:08;;;;;;;16.80;6.95;;;15.90;58.00;;;;;;4959849;28;20030;-65
2021/01/09 11:21:34;;;;;;;20.08;6.53;;;15.90;58.30;;;;;;4956780;28;20067;-65
2021/01/09 11:24:00;;;;;;;14.40;6.00;;;15.90;58.50;;;;;;4954467;28;20510;-67
2021/01/09 11:26:27;;;;;;;13.93;5.22;;;15.90;59.90;;;;;;4990516;28;20022;-65
2021/01/09 11:28:54;;;;;;;16.20;6.03;;;15.90;60.20;;;;;;4992435;28;20053;-65
2021/01/09 11:31:21;;;;;;;17.60;6.10;;;15.90;60.40;;;;;;4984761;28;20030;-65
2021/01/09 11:33:47;;;;;;;15.60;6.20;;;15.90;60.70;;;;;;4970159;28;20035;-63
2021/01/09 11:36:13;;;;;;;23.92;7.00;;;16.00;60.30;;;;;;4953076;28;20428;-63
2021/01/09 11:38:39;;;;;;;24.67;7.68;;;16.10;59.30;;;;;;4966055;28;20027;-63
2021/01/09 11:41:06;;;;;;;19.58;7.65;;;16.30;59.10;;;;;;4952960;29;20033;-64
2021/01/09 11:43:32;;;;;;;21.70;7.85;;;16.40;58.90;;;;;;4961868;28;20161;-66
2021/01/09 11:49:20;;;;;;;24.00;7.25;;;16.30;59.60;;;;;;4957774;28;20443;-63
2021/01/09 11:51:46;;;;;;;18.30;7.20;;;16.30;60.00;;;;;;4969130;28;20031;-61
2021/01/09 11:54:11;;;;;;;20.88;7.63;;;16.30;60.20;;;;;;4969024;28;20027;-62
2021/01/09 11:56:37;;;;;;;15.00;6.60;;;16.30;60.00;;;;;;4972457;28;20600;-63
2021/01/09 11:59:03;;;;;;;15.05;6.57;;;16.30;60.10;;;;;;4954776;28;20026;-62
2021/01/09 12:01:36;;;;;;;12.95;6.70;;;16.20;60.30;;;;;;4968612;28;20027;-63
2021/01/09 12:04:02;;;;;;;17.63;6.55;;;16.20;60.10;;;;;;4966412;28;20187;-63
2021/01/09 12:06:27;;;;;;;14.70;6.40;;;16.20;60.10;;;;;;4985776;28;20657;-63
2021/01/09 12:08:53;;;;;;;16.33;6.75;;;16.20;60.30;;;;;;4961736;28;20050;-62
2021/01/09 12:11:22;;;;;;;14.27;6.28;;;16.20;60.30;;;;;;4953842;28;20034;-63
2021/01/09 12:13:48;;;;;;;13.70;6.03;;;16.20;60.30;;;;;;4962193;28;20117;-63
2021/01/09 12:16:13;;;;;;;18.52;8.32;;;16.20;60.30;;;;;;4960946;28;20106;-62
2021/01/09 12:18:39;;;;;;;20.15;8.10;;;16.30;59.10;;;;;;4969304;28;20113;-63
2021/01/09 12:21:05;;;;;;;22.00;8.90;;;16.20;58.30;;;;;;4970494;28;20046;-62
2021/01/09 12:23:30;;;;;;;26.42;9.15;;;16.10;58.40;;;;;;4953713;28;20061;-62
2021/01/09 12:25:56;;;;;;;22.67;8.52;;;16.10;58.60;;;;;;4957624;28;20030;-63
2021/01/09 12:28:21;;;;;;;21.10;8.30;;;16.00;58.70;;;;;;4971967;28;20443;-62
2021/01/09 12:30:51;;;;;;;19.20;8.43;;;16.00;59.40;;;;;;4971098;28;20086;-62
2021/01/09 12:33:17;;;;;;;17.70;7.22;;;16.00;60.00;;;;;;4954392;28;20435;-62
2021/01/09 12:35:43;;;;;;;18.92;7.78;;;16.00;61.10;;;;;;4978769;28;20041;-62
2021/01/09 12:38:09;;;;;;;15.95;7.47;;;15.90;60.90;;;;;;4983006;28;20023;-62
2021/01/09 12:40:35;;;;;;;16.77;7.60;;;16.00;60.90;;;;;;4972723;28;20041;-62
2021/01/09 12:43:02;;;;;;;17.42;6.90;;;16.00;60.50;;;;;;4974720;28;20054;-62
2021/01/09 12:45:27;;;;;;;16.27;7.30;;;15.90;59.90;;;;;;4958972;28;20114;-62
2021/01/09 12:47:53;;;;;;;35.15;25.05;;;15.90;60.40;;;;;;4953521;28;20109;-62